sensor_id;sensor_type;location;lat;lon;timestamp;P1;durP1;ratioP1;P2;durP2;ratioP2
691;SDS011;328;50.086;8.576;2022-07-21T00:01:06;19.73;;;16.67;;
691;SDS011;328;50.086;8.576;2022-07-21T00:03:33;21.30;;;16.73;;
691;SDS011;328;50.086;8.576;2022-07-21T00:06:02;22.80;;;20.30;;
691;SDS011;328;50.086;8.576;2022-07-21T00:08:30;22.13;;;18.60;;
691;SDS011;328;50.086;8.576;2022-07-21T00:10:59;19.67;;;17.30;;
691;SDS011;328;50.086;8.576;2022-07-21T00:13:27;18.57;;;16.67;;
691;SDS011;328;50.086;8.576;2022-07-21T00:15:55;18.47;;;16.67;;
691;SDS011;328;50.086;8.576;2022-07-21T00:18:24;18.03;;;16.13;;
691;SDS011;328;50.086;8.576;2022-07-21T00:20:54;19.07;;;15.57;;
691;SDS011;328;50.086;8.576;2022-07-21T00:23:22;18.47;;;15.47;;
691;SDS011;328;50.086;8.576;2022-07-21T00:25:50;16.37;;;14.80;;
691;SDS011;328;50.086;8.576;2022-07-21T00:28:20;17.60;;;15.40;;
691;SDS011;328;50.086;8.576;2022-07-21T00:30:47;16.00;;;14.40;;
691;SDS011;328;50.086;8.576;2022-07-21T00:33:15;17.80;;;15.77;;
691;SDS011;328;50.086;8.576;2022-07-21T00:35:43;18.20;;;16.23;;
691;SDS011;328;50.086;8.576;2022-07-21T00:38:10;16.10;;;14.63;;
691;SDS011;328;50.086;8.576;2022-07-21T00:40:38;16.20;;;14.50;;
691;SDS011;328;50.086;8.576;2022-07-21T00:43:06;16.87;;;15.10;;
691;SDS011;328;50.086;8.576;2022-07-21T00:45:35;17.03;;;15.43;;
691;SDS011;328;50.086;8.576;2022-07-21T00:48:02;18.07;;;16.17;;
691;SDS011;328;50.086;8.576;2022-07-21T00:50:30;16.40;;;13.87;;
691;SDS011;328;50.086;8.576;2022-07-21T00:52:59;16.37;;;14.70;;
691;SDS011;328;50.086;8.576;2022-07-21T00:55:26;16.80;;;14.93;;
691;SDS011;328;50.086;8.576;2022-07-21T00:57:54;15.70;;;14.20;;
691;SDS011;328;50.086;8.576;2022-07-21T01:00:22;15.57;;;13.87;;
691;SDS011;328;50.086;8.576;2022-07-21T01:02:53;14.30;;;12.83;;
691;SDS011;328;50.086;8.576;2022-07-21T01:05:20;15.43;;;13.43;;
691;SDS011;328;50.086;8.576;2022-07-21T01:07:49;15.10;;;13.60;;
691;SDS011;328;50.086;8.576;2022-07-21T01:10:18;17.23;;;15.63;;
691;SDS011;328;50.086;8.576;2022-07-21T01:12:48;17.43;;;14.23;;
691;SDS011;328;50.086;8.576;2022-07-21T01:15:16;17.73;;;14.60;;
691;SDS011;328;50.086;8.576;2022-07-21T01:17:45;16.67;;;14.90;;
691;SDS011;328;50.086;8.576;2022-07-21T01:20:15;17.90;;;16.13;;
691;SDS011;328;50.086;8.576;2022-07-21T01:22:46;17.57;;;15.87;;
691;SDS011;328;50.086;8.576;2022-07-21T01:25:14;20.10;;;17.83;;
691;SDS011;328;50.086;8.576;2022-07-21T01:27:47;18.73;;;16.80;;
691;SDS011;328;50.086;8.576;2022-07-21T01:30:15;18.33;;;15.70;;
691;SDS011;328;50.086;8.576;2022-07-21T01:32:44;20.53;;;18.33;;
691;SDS011;328;50.086;8.576;2022-07-21T01:35:13;20.07;;;18.03;;
691;SDS011;328;50.086;8.576;2022-07-21T01:37:42;18.17;;;16.03;;
691;SDS011;328;50.086;8.576;2022-07-21T01:40:12;22.33;;;17.97;;
691;SDS011;328;50.086;8.576;2022-07-21T01:42:58;17.63;;;15.93;;
691;SDS011;328;50.086;8.576;2022-07-21T01:45:26;16.47;;;14.83;;
691;SDS011;328;50.086;8.576;2022-07-21T01:47:54;19.53;;;16.20;;
691;SDS011;328;50.086;8.576;2022-07-21T01:50:23;18.93;;;15.20;;
691;SDS011;328;50.086;8.576;2022-07-21T01:52:53;15.57;;;14.00;;
691;SDS011;328;50.086;8.576;2022-07-21T01:55:23;17.10;;;14.33;;
691;SDS011;328;50.086;8.576;2022-07-21T01:57:51;15.60;;;14.00;;
691;SDS011;328;50.086;8.576;2022-07-21T02:00:19;18.60;;;15.07;;
691;SDS011;328;50.086;8.576;2022-07-21T02:02:47;15.83;;;14.23;;
691;SDS011;328;50.086;8.576;2022-07-21T02:05:15;14.63;;;13.13;;
691;SDS011;328;50.086;8.576;2022-07-21T02:07:42;14.80;;;13.20;;
691;SDS011;328;50.086;8.576;2022-07-21T02:10:10;17.90;;;14.70;;
691;SDS011;328;50.086;8.576;2022-07-21T02:12:39;15.77;;;12.97;;
691;SDS011;328;50.086;8.576;2022-07-21T02:15:07;13.93;;;12.53;;
691;SDS011;328;50.086;8.576;2022-07-21T02:17:36;16.27;;;14.33;;
691;SDS011;328;50.086;8.576;2022-07-21T02:20:04;14.30;;;12.37;;
691;SDS011;328;50.086;8.576;2022-07-21T02:22:33;13.63;;;11.43;;
691;SDS011;328;50.086;8.576;2022-07-21T02:25:00;13.40;;;11.97;;
691;SDS011;328;50.086;8.576;2022-07-21T02:27:28;11.60;;;10.50;;
691;SDS011;328;50.086;8.576;2022-07-21T02:29:57;12.50;;;11.20;;
691;SDS011;328;50.086;8.576;2022-07-21T02:32:24;9.23;;;8.40;;
691;SDS011;328;50.086;8.576;2022-07-21T02:34:52;8.90;;;8.00;;
691;SDS011;328;50.086;8.576;2022-07-21T02:37:20;8.47;;;7.40;;
691;SDS011;328;50.086;8.576;2022-07-21T02:39:47;8.70;;;7.73;;
691;SDS011;328;50.086;8.576;2022-07-21T02:42:15;8.90;;;8.00;;
691;SDS011;328;50.086;8.576;2022-07-21T02:44:43;8.00;;;6.50;;
691;SDS011;328;50.086;8.576;2022-07-21T02:47:12;7.60;;;6.90;;
691;SDS011;328;50.086;8.576;2022-07-21T02:49:39;7.97;;;7.17;;
691;SDS011;328;50.086;8.576;2022-07-21T02:52:09;9.23;;;7.37;;
691;SDS011;328;50.086;8.576;2022-07-21T02:54:36;8.07;;;6.80;;
691;SDS011;328;50.086;8.576;2022-07-21T02:57:04;8.00;;;7.20;;
691;SDS011;328;50.086;8.576;2022-07-21T02:59:39;7.93;;;7.13;;
691;SDS011;328;50.086;8.576;2022-07-21T03:02:06;7.73;;;7.00;;
691;SDS011;328;50.086;8.576;2022-07-21T03:04:35;7.30;;;6.60;;
691;SDS011;328;50.086;8.576;2022-07-21T03:07:03;9.03;;;7.20;;
691;SDS011;328;50.086;8.576;2022-07-21T03:09:30;6.47;;;5.83;;
691;SDS011;328;50.086;8.576;2022-07-21T03:11:58;7.23;;;6.07;;
691;SDS011;328;50.086;8.576;2022-07-21T03:14:26;6.97;;;6.27;;
691;SDS011;328;50.086;8.576;2022-07-21T03:16:53;6.80;;;6.10;;
691;SDS011;328;50.086;8.576;2022-07-21T03:19:23;7.27;;;6.57;;
691;SDS011;328;50.086;8.576;2022-07-21T03:21:52;6.87;;;6.27;;
691;SDS011;328;50.086;8.576;2022-07-21T03:24:20;9.43;;;6.20;;
691;SDS011;328;50.086;8.576;2022-07-21T03:26:48;6.90;;;5.67;;
691;SDS011;328;50.086;8.576;2022-07-21T03:29:15;5.83;;;5.33;;
691;SDS011;328;50.086;8.576;2022-07-21T03:31:43;6.47;;;5.87;;
691;SDS011;328;50.086;8.576;2022-07-21T03:34:11;7.03;;;6.33;;
691;SDS011;328;50.086;8.576;2022-07-21T03:36:38;6.30;;;5.70;;
691;SDS011;328;50.086;8.576;2022-07-21T03:39:07;7.40;;;6.80;;
691;SDS011;328;50.086;8.576;2022-07-21T03:41:35;6.93;;;5.60;;
691;SDS011;328;50.086;8.576;2022-07-21T03:44:02;5.90;;;5.40;;
691;SDS011;328;50.086;8.576;2022-07-21T03:46:30;9.63;;;7.70;;
691;SDS011;328;50.086;8.576;2022-07-21T03:48:58;6.50;;;5.90;;
691;SDS011;328;50.086;8.576;2022-07-21T03:51:27;8.47;;;6.20;;
691;SDS011;328;50.086;8.576;2022-07-21T03:53:54;6.63;;;6.00;;
691;SDS011;328;50.086;8.576;2022-07-21T03:56:23;6.83;;;6.13;;
691;SDS011;328;50.086;8.576;2022-07-21T03:58:51;8.50;;;5.97;;
691;SDS011;328;50.086;8.576;2022-07-21T04:01:19;7.03;;;5.50;;
691;SDS011;328;50.086;8.576;2022-07-21T04:03:46;5.83;;;5.13;;
691;SDS011;328;50.086;8.576;2022-07-21T04:06:14;6.83;;;6.20;;
691;SDS011;328;50.086;8.576;2022-07-21T04:08:42;7.77;;;6.20;;
691;SDS011;328;50.086;8.576;2022-07-21T04:11:09;9.17;;;6.23;;
691;SDS011;328;50.086;8.576;2022-07-21T04:13:38;6.33;;;5.80;;
691;SDS011;328;50.086;8.576;2022-07-21T04:16:06;5.90;;;5.13;;
691;SDS011;328;50.086;8.576;2022-07-21T04:18:34;6.43;;;5.73;;
691;SDS011;328;50.086;8.576;2022-07-21T04:21:02;6.70;;;6.10;;
691;SDS011;328;50.086;8.576;2022-07-21T04:23:29;8.97;;;5.20;;
691;SDS011;328;50.086;8.576;2022-07-21T04:25:57;7.30;;;6.70;;
691;SDS011;328;50.086;8.576;2022-07-21T04:28:25;6.23;;;5.40;;
691;SDS011;328;50.086;8.576;2022-07-21T04:30:54;6.83;;;6.17;;
691;SDS011;328;50.086;8.576;2022-07-21T04:33:21;5.87;;;5.27;;
691;SDS011;328;50.086;8.576;2022-07-21T04:35:49;5.87;;;5.27;;
691;SDS011;328;50.086;8.576;2022-07-21T04:38:16;5.67;;;5.17;;
691;SDS011;328;50.086;8.576;2022-07-21T04:40:44;5.30;;;4.80;;
691;SDS011;328;50.086;8.576;2022-07-21T04:43:12;6.10;;;5.50;;
691;SDS011;328;50.086;8.576;2022-07-21T04:45:39;6.67;;;5.00;;
691;SDS011;328;50.086;8.576;2022-07-21T04:48:09;5.97;;;5.37;;
691;SDS011;328;50.086;8.576;2022-07-21T04:50:36;6.10;;;5.40;;
691;SDS011;328;50.086;8.576;2022-07-21T04:53:04;6.27;;;5.33;;
691;SDS011;328;50.086;8.576;2022-07-21T04:55:31;5.37;;;4.73;;
691;SDS011;328;50.086;8.576;2022-07-21T04:57:59;6.63;;;5.93;;
691;SDS011;328;50.086;8.576;2022-07-21T05:00:26;9.23;;;5.60;;
691;SDS011;328;50.086;8.576;2022-07-21T05:02:55;5.13;;;4.63;;
691;SDS011;328;50.086;8.576;2022-07-21T05:05:24;5.80;;;4.70;;
691;SDS011;328;50.086;8.576;2022-07-21T05:07:51;5.37;;;4.87;;
691;SDS011;328;50.086;8.576;2022-07-21T05:10:19;6.17;;;5.33;;
691;SDS011;328;50.086;8.576;2022-07-21T05:12:47;6.10;;;5.50;;
691;SDS011;328;50.086;8.576;2022-07-21T05:15:15;6.13;;;5.47;;
691;SDS011;328;50.086;8.576;2022-07-21T05:17:43;8.23;;;5.40;;
691;SDS011;328;50.086;8.576;2022-07-21T05:20:11;6.57;;;5.03;;
691;SDS011;328;50.086;8.576;2022-07-21T05:22:40;7.70;;;5.20;;
691;SDS011;328;50.086;8.576;2022-07-21T05:25:08;5.87;;;5.23;;
691;SDS011;328;50.086;8.576;2022-07-21T05:27:35;6.50;;;5.80;;
691;SDS011;328;50.086;8.576;2022-07-21T05:30:03;5.97;;;5.37;;
691;SDS011;328;50.086;8.576;2022-07-21T05:32:32;5.93;;;5.37;;
691;SDS011;328;50.086;8.576;2022-07-21T05:34:59;7.70;;;5.83;;
691;SDS011;328;50.086;8.576;2022-07-21T05:37:27;7.27;;;6.03;;
691;SDS011;328;50.086;8.576;2022-07-21T05:39:55;6.23;;;5.63;;
691;SDS011;328;50.086;8.576;2022-07-21T05:42:23;6.33;;;5.73;;
691;SDS011;328;50.086;8.576;2022-07-21T05:44:51;7.50;;;6.80;;
691;SDS011;328;50.086;8.576;2022-07-21T05:47:18;6.63;;;5.93;;
691;SDS011;328;50.086;8.576;2022-07-21T05:49:46;6.03;;;5.20;;
691;SDS011;328;50.086;8.576;2022-07-21T05:52:13;6.60;;;5.90;;
691;SDS011;328;50.086;8.576;2022-07-21T05:54:41;6.37;;;5.73;;
691;SDS011;328;50.086;8.576;2022-07-21T05:57:09;7.70;;;6.37;;
691;SDS011;328;50.086;8.576;2022-07-21T05:59:37;6.63;;;5.90;;
691;SDS011;328;50.086;8.576;2022-07-21T06:02:04;8.33;;;7.60;;
691;SDS011;328;50.086;8.576;2022-07-21T06:04:32;6.90;;;6.10;;
691;SDS011;328;50.086;8.576;2022-07-21T06:06:59;11.10;;;6.53;;
691;SDS011;328;50.086;8.576;2022-07-21T06:09:27;8.07;;;5.97;;
691;SDS011;328;50.086;8.576;2022-07-21T06:11:55;6.37;;;5.77;;
691;SDS011;328;50.086;8.576;2022-07-21T06:14:24;7.50;;;5.77;;
691;SDS011;328;50.086;8.576;2022-07-21T06:16:51;7.10;;;5.73;;
691;SDS011;328;50.086;8.576;2022-07-21T06:19:19;9.67;;;5.70;;
691;SDS011;328;50.086;8.576;2022-07-21T06:21:46;6.83;;;5.70;;
691;SDS011;328;50.086;8.576;2022-07-21T06:24:14;5.30;;;4.80;;
691;SDS011;328;50.086;8.576;2022-07-21T06:26:42;6.10;;;5.47;;
691;SDS011;328;50.086;8.576;2022-07-21T06:29:10;6.53;;;5.93;;
691;SDS011;328;50.086;8.576;2022-07-21T06:31:38;6.43;;;5.83;;
691;SDS011;328;50.086;8.576;2022-07-21T06:34:06;6.37;;;5.23;;
691;SDS011;328;50.086;8.576;2022-07-21T06:36:34;7.50;;;6.60;;
691;SDS011;328;50.086;8.576;2022-07-21T06:39:01;6.87;;;5.90;;
691;SDS011;328;50.086;8.576;2022-07-21T06:41:29;6.53;;;5.87;;
691;SDS011;328;50.086;8.576;2022-07-21T06:43:56;6.53;;;5.70;;
691;SDS011;328;50.086;8.576;2022-07-21T06:46:24;6.43;;;5.80;;
691;SDS011;328;50.086;8.576;2022-07-21T06:48:53;6.73;;;5.30;;
691;SDS011;328;50.086;8.576;2022-07-21T06:51:21;5.97;;;5.00;;
691;SDS011;328;50.086;8.576;2022-07-21T06:53:48;6.40;;;5.80;;
691;SDS011;328;50.086;8.576;2022-07-21T06:56:16;6.27;;;5.67;;
691;SDS011;328;50.086;8.576;2022-07-21T06:58:44;6.33;;;5.67;;
691;SDS011;328;50.086;8.576;2022-07-21T07:01:16;5.63;;;5.13;;
691;SDS011;328;50.086;8.576;2022-07-21T07:03:45;6.67;;;5.90;;
691;SDS011;328;50.086;8.576;2022-07-21T07:06:15;5.63;;;5.10;;
691;SDS011;328;50.086;8.576;2022-07-21T07:08:42;5.90;;;5.33;;
691;SDS011;328;50.086;8.576;2022-07-21T07:11:10;7.20;;;6.17;;
691;SDS011;328;50.086;8.576;2022-07-21T07:13:38;5.63;;;5.13;;
691;SDS011;328;50.086;8.576;2022-07-21T07:16:21;5.93;;;5.40;;
691;SDS011;328;50.086;8.576;2022-07-21T07:18:48;6.00;;;4.50;;
691;SDS011;328;50.086;8.576;2022-07-21T07:21:18;6.53;;;5.80;;
691;SDS011;328;50.086;8.576;2022-07-21T07:23:45;6.43;;;4.70;;
691;SDS011;328;50.086;8.576;2022-07-21T07:26:13;5.50;;;5.00;;
691;SDS011;328;50.086;8.576;2022-07-21T07:28:40;5.53;;;5.03;;
691;SDS011;328;50.086;8.576;2022-07-21T07:31:08;6.40;;;4.97;;
691;SDS011;328;50.086;8.576;2022-07-21T07:33:36;7.33;;;5.70;;
691;SDS011;328;50.086;8.576;2022-07-21T07:36:03;5.63;;;4.93;;
691;SDS011;328;50.086;8.576;2022-07-21T07:38:32;6.03;;;5.43;;
691;SDS011;328;50.086;8.576;2022-07-21T07:41:00;7.13;;;6.17;;
691;SDS011;328;50.086;8.576;2022-07-21T07:43:28;6.53;;;5.40;;
691;SDS011;328;50.086;8.576;2022-07-21T07:45:56;5.47;;;4.97;;
691;SDS011;328;50.086;8.576;2022-07-21T07:48:23;6.67;;;5.60;;
691;SDS011;328;50.086;8.576;2022-07-21T07:50:51;8.40;;;5.40;;
691;SDS011;328;50.086;8.576;2022-07-21T07:53:18;6.67;;;5.60;;
691;SDS011;328;50.086;8.576;2022-07-21T07:55:47;7.87;;;5.10;;
691;SDS011;328;50.086;8.576;2022-07-21T07:58:15;6.10;;;4.43;;
691;SDS011;328;50.086;8.576;2022-07-21T08:00:42;5.57;;;5.07;;
691;SDS011;328;50.086;8.576;2022-07-21T08:03:20;5.37;;;4.87;;
691;SDS011;328;50.086;8.576;2022-07-21T08:05:48;5.93;;;4.90;;
691;SDS011;328;50.086;8.576;2022-07-21T08:08:15;5.10;;;4.70;;
691;SDS011;328;50.086;8.576;2022-07-21T08:10:43;4.93;;;4.47;;
691;SDS011;328;50.086;8.576;2022-07-21T08:13:13;4.97;;;4.47;;
691;SDS011;328;50.086;8.576;2022-07-21T08:15:42;5.03;;;4.57;;
691;SDS011;328;50.086;8.576;2022-07-21T08:18:10;6.20;;;5.60;;
691;SDS011;328;50.086;8.576;2022-07-21T08:20:38;6.87;;;6.17;;
691;SDS011;328;50.086;8.576;2022-07-21T08:23:06;4.73;;;4.33;;
691;SDS011;328;50.086;8.576;2022-07-21T08:25:36;5.20;;;4.70;;
691;SDS011;328;50.086;8.576;2022-07-21T08:28:04;6.37;;;4.20;;
691;SDS011;328;50.086;8.576;2022-07-21T08:30:33;7.10;;;4.80;;
691;SDS011;328;50.086;8.576;2022-07-21T08:33:01;5.03;;;4.60;;
691;SDS011;328;50.086;8.576;2022-07-21T08:35:29;6.47;;;4.90;;
691;SDS011;328;50.086;8.576;2022-07-21T08:38:00;5.10;;;4.60;;
691;SDS011;328;50.086;8.576;2022-07-21T08:40:31;4.63;;;4.23;;
691;SDS011;328;50.086;8.576;2022-07-21T08:43:00;4.87;;;4.33;;
691;SDS011;328;50.086;8.576;2022-07-21T08:45:28;4.93;;;4.50;;
691;SDS011;328;50.086;8.576;2022-07-21T08:47:58;5.10;;;4.57;;
691;SDS011;328;50.086;8.576;2022-07-21T08:50:27;4.97;;;4.47;;
691;SDS011;328;50.086;8.576;2022-07-21T08:52:55;4.37;;;3.80;;
691;SDS011;328;50.086;8.576;2022-07-21T08:55:27;4.77;;;4.37;;
691;SDS011;328;50.086;8.576;2022-07-21T08:57:56;5.00;;;4.30;;
691;SDS011;328;50.086;8.576;2022-07-21T09:00:24;5.53;;;5.03;;
691;SDS011;328;50.086;8.576;2022-07-21T09:05:58;5.23;;;4.47;;
691;SDS011;328;50.086;8.576;2022-07-21T09:08:30;5.00;;;3.93;;
691;SDS011;328;50.086;8.576;2022-07-21T09:11:08;5.00;;;4.50;;
691;SDS011;328;50.086;8.576;2022-07-21T09:13:36;4.47;;;4.07;;
691;SDS011;328;50.086;8.576;2022-07-21T09:16:04;4.53;;;4.13;;
691;SDS011;328;50.086;8.576;2022-07-21T09:18:33;4.97;;;4.40;;
691;SDS011;328;50.086;8.576;2022-07-21T09:21:01;4.37;;;3.97;;
691;SDS011;328;50.086;8.576;2022-07-21T09:23:29;4.10;;;3.60;;
691;SDS011;328;50.086;8.576;2022-07-21T09:25:57;4.33;;;3.93;;
691;SDS011;328;50.086;8.576;2022-07-21T09:28:25;3.93;;;3.43;;
691;SDS011;328;50.086;8.576;2022-07-21T09:30:55;3.77;;;3.47;;
691;SDS011;328;50.086;8.576;2022-07-21T09:33:25;4.33;;;3.43;;
691;SDS011;328;50.086;8.576;2022-07-21T09:36:00;4.70;;;3.90;;
691;SDS011;328;50.086;8.576;2022-07-21T09:38:30;4.17;;;3.87;;
691;SDS011;328;50.086;8.576;2022-07-21T09:41:06;4.77;;;3.90;;
691;SDS011;328;50.086;8.576;2022-07-21T09:43:36;4.73;;;3.80;;
691;SDS011;328;50.086;8.576;2022-07-21T09:46:10;5.60;;;3.73;;
691;SDS011;328;50.086;8.576;2022-07-21T09:48:40;3.70;;;3.40;;
691;SDS011;328;50.086;8.576;2022-07-21T09:51:29;4.43;;;3.67;;
691;SDS011;328;50.086;8.576;2022-07-21T09:53:59;4.23;;;3.83;;
691;SDS011;328;50.086;8.576;2022-07-21T09:56:29;4.27;;;3.87;;
691;SDS011;328;50.086;8.576;2022-07-21T09:58:58;3.70;;;3.40;;
691;SDS011;328;50.086;8.576;2022-07-21T10:01:27;4.23;;;3.57;;
691;SDS011;328;50.086;8.576;2022-07-21T10:03:56;3.23;;;2.70;;
691;SDS011;328;50.086;8.576;2022-07-21T10:06:27;4.00;;;3.47;;
691;SDS011;328;50.086;8.576;2022-07-21T10:08:57;3.10;;;2.80;;
691;SDS011;328;50.086;8.576;2022-07-21T10:11:25;3.67;;;2.67;;
691;SDS011;328;50.086;8.576;2022-07-21T10:13:56;4.23;;;3.83;;
691;SDS011;328;50.086;8.576;2022-07-21T10:16:24;4.40;;;4.00;;
691;SDS011;328;50.086;8.576;2022-07-21T10:18:54;5.60;;;3.63;;
691;SDS011;328;50.086;8.576;2022-07-21T10:21:28;3.63;;;3.33;;
691;SDS011;328;50.086;8.576;2022-07-21T10:23:59;4.03;;;3.47;;
691;SDS011;328;50.086;8.576;2022-07-21T10:26:27;3.30;;;3.00;;
691;SDS011;328;50.086;8.576;2022-07-21T10:28:55;5.63;;;5.03;;
691;SDS011;328;50.086;8.576;2022-07-21T10:31:23;3.40;;;3.17;;
691;SDS011;328;50.086;8.576;2022-07-21T10:33:55;3.57;;;3.00;;
691;SDS011;328;50.086;8.576;2022-07-21T10:36:44;5.17;;;4.67;;
691;SDS011;328;50.086;8.576;2022-07-21T10:41:56;5.80;;;4.27;;
691;SDS011;328;50.086;8.576;2022-07-21T10:44:41;5.03;;;4.37;;
691;SDS011;328;50.086;8.576;2022-07-21T10:47:13;4.70;;;4.30;;
691;SDS011;328;50.086;8.576;2022-07-21T10:49:48;4.30;;;2.47;;
691;SDS011;328;50.086;8.576;2022-07-21T10:55:23;3.00;;;2.70;;
691;SDS011;328;50.086;8.576;2022-07-21T10:58:12;11.93;;;7.43;;
691;SDS011;328;50.086;8.576;2022-07-21T11:00:44;3.37;;;2.30;;
691;SDS011;328;50.086;8.576;2022-07-21T11:03:14;3.90;;;2.63;;
691;SDS011;328;50.086;8.576;2022-07-21T11:09:09;3.20;;;2.90;;
691;SDS011;328;50.086;8.576;2022-07-21T11:11:39;4.43;;;3.63;;
691;SDS011;328;50.086;8.576;2022-07-21T11:14:20;6.13;;;4.10;;
691;SDS011;328;50.086;8.576;2022-07-21T11:17:02;15.50;;;6.43;;
691;SDS011;328;50.086;8.576;2022-07-21T11:19:30;3.10;;;2.60;;
691;SDS011;328;50.086;8.576;2022-07-21T11:22:02;8.27;;;7.43;;
691;SDS011;328;50.086;8.576;2022-07-21T11:24:31;4.97;;;4.00;;
691;SDS011;328;50.086;8.576;2022-07-21T11:27:01;5.33;;;2.83;;
691;SDS011;328;50.086;8.576;2022-07-21T11:29:30;3.23;;;2.93;;
691;SDS011;328;50.086;8.576;2022-07-21T11:31:58;4.60;;;4.20;;
691;SDS011;328;50.086;8.576;2022-07-21T11:34:41;4.30;;;3.93;;
691;SDS011;328;50.086;8.576;2022-07-21T11:37:11;2.70;;;2.10;;
691;SDS011;328;50.086;8.576;2022-07-21T11:40:02;2.97;;;2.67;;
691;SDS011;328;50.086;8.576;2022-07-21T11:42:32;3.93;;;3.40;;
691;SDS011;328;50.086;8.576;2022-07-21T11:44:59;2.90;;;2.23;;
691;SDS011;328;50.086;8.576;2022-07-21T11:47:27;4.90;;;4.20;;
691;SDS011;328;50.086;8.576;2022-07-21T11:49:56;4.40;;;4.10;;
691;SDS011;328;50.086;8.576;2022-07-21T11:52:25;2.53;;;2.10;;
691;SDS011;328;50.086;8.576;2022-07-21T11:54:54;3.00;;;2.70;;
691;SDS011;328;50.086;8.576;2022-07-21T11:57:22;4.63;;;3.73;;
691;SDS011;328;50.086;8.576;2022-07-21T11:59:52;9.50;;;8.80;;
691;SDS011;328;50.086;8.576;2022-07-21T12:02:21;6.30;;;5.80;;
691;SDS011;328;50.086;8.576;2022-07-21T12:04:50;5.70;;;4.67;;
691;SDS011;328;50.086;8.576;2022-07-21T12:07:19;5.10;;;3.30;;
691;SDS011;328;50.086;8.576;2022-07-21T12:09:48;5.80;;;3.63;;
691;SDS011;328;50.086;8.576;2022-07-21T12:12:27;3.40;;;2.40;;
691;SDS011;328;50.086;8.576;2022-07-21T12:15:10;4.63;;;4.13;;
691;SDS011;328;50.086;8.576;2022-07-21T12:17:40;3.10;;;2.80;;
691;SDS011;328;50.086;8.576;2022-07-21T12:20:09;6.10;;;4.90;;
691;SDS011;328;50.086;8.576;2022-07-21T12:22:38;5.27;;;4.87;;
691;SDS011;328;50.086;8.576;2022-07-21T12:25:09;5.77;;;3.80;;
691;SDS011;328;50.086;8.576;2022-07-21T12:27:38;6.40;;;4.70;;
691;SDS011;328;50.086;8.576;2022-07-21T12:30:07;4.53;;;4.23;;
691;SDS011;328;50.086;8.576;2022-07-21T12:32:44;7.40;;;4.73;;
691;SDS011;328;50.086;8.576;2022-07-21T12:35:17;4.33;;;2.40;;
691;SDS011;328;50.086;8.576;2022-07-21T12:37:56;10.00;;;8.50;;
691;SDS011;328;50.086;8.576;2022-07-21T12:40:25;7.53;;;4.53;;
691;SDS011;328;50.086;8.576;2022-07-21T12:45:46;5.20;;;4.70;;
691;SDS011;328;50.086;8.576;2022-07-21T12:48:16;3.90;;;3.20;;
691;SDS011;328;50.086;8.576;2022-07-21T12:51:01;5.07;;;4.67;;
691;SDS011;328;50.086;8.576;2022-07-21T12:53:30;6.70;;;5.90;;
691;SDS011;328;50.086;8.576;2022-07-21T12:55:58;5.30;;;4.90;;
691;SDS011;328;50.086;8.576;2022-07-21T12:58:25;4.03;;;3.30;;
691;SDS011;328;50.086;8.576;2022-07-21T13:00:54;7.43;;;4.07;;
691;SDS011;328;50.086;8.576;2022-07-21T13:03:23;3.80;;;3.40;;
691;SDS011;328;50.086;8.576;2022-07-21T13:05:56;5.00;;;4.47;;
691;SDS011;328;50.086;8.576;2022-07-21T13:08:23;4.57;;;2.83;;
691;SDS011;328;50.086;8.576;2022-07-21T13:10:53;3.70;;;3.00;;
691;SDS011;328;50.086;8.576;2022-07-21T13:13:20;5.77;;;4.30;;
691;SDS011;328;50.086;8.576;2022-07-21T13:15:48;5.43;;;4.93;;
691;SDS011;328;50.086;8.576;2022-07-21T13:18:17;4.33;;;3.60;;
691;SDS011;328;50.086;8.576;2022-07-21T13:20:44;5.63;;;5.23;;
691;SDS011;328;50.086;8.576;2022-07-21T13:23:12;6.63;;;5.90;;
691;SDS011;328;50.086;8.576;2022-07-21T13:25:39;4.27;;;3.87;;
691;SDS011;328;50.086;8.576;2022-07-21T13:28:07;6.40;;;4.90;;
691;SDS011;328;50.086;8.576;2022-07-21T13:30:35;5.87;;;5.30;;
691;SDS011;328;50.086;8.576;2022-07-21T13:33:07;8.50;;;4.27;;
691;SDS011;328;50.086;8.576;2022-07-21T13:35:36;3.73;;;3.43;;
691;SDS011;328;50.086;8.576;2022-07-21T13:38:04;4.50;;;4.10;;
691;SDS011;328;50.086;8.576;2022-07-21T13:40:31;5.00;;;4.50;;
691;SDS011;328;50.086;8.576;2022-07-21T13:43:19;3.30;;;3.00;;
691;SDS011;328;50.086;8.576;2022-07-21T13:46:01;4.57;;;3.40;;
691;SDS011;328;50.086;8.576;2022-07-21T13:48:29;5.07;;;4.23;;
691;SDS011;328;50.086;8.576;2022-07-21T13:50:58;4.17;;;3.77;;
691;SDS011;328;50.086;8.576;2022-07-21T13:53:25;6.27;;;4.63;;
691;SDS011;328;50.086;8.576;2022-07-21T13:55:53;4.97;;;4.67;;
691;SDS011;328;50.086;8.576;2022-07-21T13:58:20;3.60;;;3.30;;
691;SDS011;328;50.086;8.576;2022-07-21T14:00:48;4.23;;;3.83;;
691;SDS011;328;50.086;8.576;2022-07-21T14:03:17;4.10;;;3.80;;
691;SDS011;328;50.086;8.576;2022-07-21T14:05:44;5.60;;;4.90;;
691;SDS011;328;50.086;8.576;2022-07-21T14:08:13;6.50;;;6.00;;
691;SDS011;328;50.086;8.576;2022-07-21T14:10:41;5.30;;;4.77;;
691;SDS011;328;50.086;8.576;2022-07-21T14:13:09;6.97;;;4.40;;
691;SDS011;328;50.086;8.576;2022-07-21T14:15:36;5.00;;;3.63;;
691;SDS011;328;50.086;8.576;2022-07-21T14:18:04;5.50;;;4.13;;
691;SDS011;328;50.086;8.576;2022-07-21T14:20:31;4.83;;;4.40;;
691;SDS011;328;50.086;8.576;2022-07-21T14:22:59;5.07;;;3.70;;
691;SDS011;328;50.086;8.576;2022-07-21T14:25:28;4.20;;;3.80;;
691;SDS011;328;50.086;8.576;2022-07-21T14:27:56;4.63;;;3.50;;
691;SDS011;328;50.086;8.576;2022-07-21T14:30:26;3.47;;;3.10;;
691;SDS011;328;50.086;8.576;2022-07-21T14:32:55;4.20;;;2.97;;
691;SDS011;328;50.086;8.576;2022-07-21T14:35:23;5.60;;;4.20;;
691;SDS011;328;50.086;8.576;2022-07-21T14:37:52;4.00;;;3.60;;
691;SDS011;328;50.086;8.576;2022-07-21T14:40:20;4.57;;;3.70;;
691;SDS011;328;50.086;8.576;2022-07-21T14:42:50;4.20;;;3.80;;
691;SDS011;328;50.086;8.576;2022-07-21T14:45:18;3.87;;;3.57;;
691;SDS011;328;50.086;8.576;2022-07-21T14:47:48;4.63;;;4.23;;
691;SDS011;328;50.086;8.576;2022-07-21T14:50:17;4.70;;;4.20;;
691;SDS011;328;50.086;8.576;2022-07-21T14:52:52;5.10;;;4.60;;
691;SDS011;328;50.086;8.576;2022-07-21T14:55:21;4.70;;;4.20;;
691;SDS011;328;50.086;8.576;2022-07-21T14:57:52;6.93;;;4.23;;
691;SDS011;328;50.086;8.576;2022-07-21T15:00:20;5.57;;;4.33;;
691;SDS011;328;50.086;8.576;2022-07-21T15:02:49;5.27;;;4.20;;
691;SDS011;328;50.086;8.576;2022-07-21T15:05:17;6.53;;;4.77;;
691;SDS011;328;50.086;8.576;2022-07-21T15:07:44;4.07;;;3.67;;
691;SDS011;328;50.086;8.576;2022-07-21T15:10:12;5.70;;;3.93;;
691;SDS011;328;50.086;8.576;2022-07-21T15:12:39;5.57;;;4.50;;
691;SDS011;328;50.086;8.576;2022-07-21T15:15:09;4.90;;;4.40;;
691;SDS011;328;50.086;8.576;2022-07-21T15:17:36;3.97;;;3.57;;
691;SDS011;328;50.086;8.576;2022-07-21T15:20:04;4.20;;;3.80;;
691;SDS011;328;50.086;8.576;2022-07-21T15:22:38;4.10;;;3.80;;
691;SDS011;328;50.086;8.576;2022-07-21T15:25:06;5.37;;;4.30;;
691;SDS011;328;50.086;8.576;2022-07-21T15:27:36;5.13;;;3.50;;
691;SDS011;328;50.086;8.576;2022-07-21T15:30:06;4.10;;;3.80;;
691;SDS011;328;50.086;8.576;2022-07-21T15:32:36;4.03;;;3.27;;
691;SDS011;328;50.086;8.576;2022-07-21T15:35:04;4.40;;;3.53;;
691;SDS011;328;50.086;8.576;2022-07-21T15:37:32;5.27;;;3.70;;
691;SDS011;328;50.086;8.576;2022-07-21T15:40:00;3.80;;;3.50;;
691;SDS011;328;50.086;8.576;2022-07-21T15:42:28;4.10;;;3.80;;
691;SDS011;328;50.086;8.576;2022-07-21T15:44:58;5.07;;;4.23;;
691;SDS011;328;50.086;8.576;2022-07-21T15:47:27;4.43;;;3.43;;
691;SDS011;328;50.086;8.576;2022-07-21T15:49:55;4.53;;;4.13;;
691;SDS011;328;50.086;8.576;2022-07-21T15:52:23;4.37;;;3.97;;
691;SDS011;328;50.086;8.576;2022-07-21T15:54:50;5.50;;;4.33;;
691;SDS011;328;50.086;8.576;2022-07-21T15:57:28;6.27;;;5.27;;
691;SDS011;328;50.086;8.576;2022-07-21T15:59:55;7.30;;;6.30;;
691;SDS011;328;50.086;8.576;2022-07-21T16:02:23;4.77;;;4.30;;
691;SDS011;328;50.086;8.576;2022-07-21T16:04:53;5.77;;;5.17;;
691;SDS011;328;50.086;8.576;2022-07-21T16:07:21;3.73;;;3.43;;